sensor_id;sensor_type;location;lat;lon;timestamp;temperature;humidity
20242;DHT22;10279;46.388;8.116;2022-08-05T00:01:30;22.40;99.90
20242;DHT22;10279;46.388;8.116;2022-08-05T00:04:17;23.30;99.90
20242;DHT22;10279;46.388;8.116;2022-08-05T00:11:47;23.30;99.90
20242;DHT22;10279;46.388;8.116;2022-08-05T00:14:25;23.40;99.90
20242;DHT22;10279;46.388;8.116;2022-08-05T00:58:14;23.10;99.90
20242;DHT22;10279;46.388;8.116;2022-08-05T01:00:45;23.10;99.90
20242;DHT22;10279;46.388;8.116;2022-08-05T01:03:16;23.10;99.90
20242;DHT22;10279;46.388;8.116;2022-08-05T01:08:20;23.00;99.90
20242;DHT22;10279;46.388;8.116;2022-08-05T01:11:15;23.10;99.90
20242;DHT22;10279;46.388;8.116;2022-08-05T01:16:49;23.20;99.90
20242;DHT22;10279;46.388;8.116;2022-08-05T01:28:08;23.30;99.90
20242;DHT22;10279;46.388;8.116;2022-08-05T01:30:45;23.30;99.90
20242;DHT22;10279;46.388;8.116;2022-08-05T01:33:23;23.20;99.90
20242;DHT22;10279;46.388;8.116;2022-08-05T01:35:53;23.30;99.90
20242;DHT22;10279;46.388;8.116;2022-08-05T01:38:24;23.30;99.90
20242;DHT22;10279;46.388;8.116;2022-08-05T01:41:00;23.20;99.90
20242;DHT22;10279;46.388;8.116;2022-08-05T01:43:28;23.20;99.90
20242;DHT22;10279;46.388;8.116;2022-08-05T04:31:43;21.80;99.90
20242;DHT22;10279;46.388;8.116;2022-08-05T04:34:14;22.00;99.90
20242;DHT22;10279;46.388;8.116;2022-08-05T04:37:00;22.00;99.90
20242;DHT22;10279;46.388;8.116;2022-08-05T04:39:29;22.00;99.90
20242;DHT22;10279;46.388;8.116;2022-08-05T04:41:57;22.10;99.90
20242;DHT22;10279;46.388;8.116;2022-08-05T04:44:24;22.00;99.90
20242;DHT22;10279;46.388;8.116;2022-08-05T04:46:58;22.00;99.90
20242;DHT22;10279;46.388;8.116;2022-08-05T04:49:26;22.00;99.90
20242;DHT22;10279;46.388;8.116;2022-08-05T04:52:14;21.90;99.90
20242;DHT22;10279;46.388;8.116;2022-08-05T04:54:41;21.80;99.90
20242;DHT22;10279;46.388;8.116;2022-08-05T04:57:09;21.70;99.90
20242;DHT22;10279;46.388;8.116;2022-08-05T04:59:36;21.70;99.90
20242;DHT22;10279;46.388;8.116;2022-08-05T05:02:07;21.70;99.90
20242;DHT22;10279;46.388;8.116;2022-08-05T05:04:54;21.60;99.90
20242;DHT22;10279;46.388;8.116;2022-08-05T05:07:29;21.60;99.90
20242;DHT22;10279;46.388;8.116;2022-08-05T05:09:58;21.70;99.90
20242;DHT22;10279;46.388;8.116;2022-08-05T05:12:30;21.80;99.90
20242;DHT22;10279;46.388;8.116;2022-08-05T05:15:00;21.90;99.90
20242;DHT22;10279;46.388;8.116;2022-08-05T05:17:39;21.90;99.90
20242;DHT22;10279;46.388;8.116;2022-08-05T05:20:23;21.90;99.90
20242;DHT22;10279;46.388;8.116;2022-08-05T05:23:01;21.90;99.90
20242;DHT22;10279;46.388;8.116;2022-08-05T05:25:45;22.00;99.90
20242;DHT22;10279;46.388;8.116;2022-08-05T05:28:13;22.10;99.90
20242;DHT22;10279;46.388;8.116;2022-08-05T05:30:41;22.10;99.90
20242;DHT22;10279;46.388;8.116;2022-08-05T05:33:16;22.20;99.90
20242;DHT22;10279;46.388;8.116;2022-08-05T05:35:49;22.20;99.90
20242;DHT22;10279;46.388;8.116;2022-08-05T05:38:17;22.20;99.90
20242;DHT22;10279;46.388;8.116;2022-08-05T05:40:54;22.10;99.90
20242;DHT22;10279;46.388;8.116;2022-08-05T05:43:21;22.10;99.90
20242;DHT22;10279;46.388;8.116;2022-08-05T05:46:08;22.10;99.90
20242;DHT22;10279;46.388;8.116;2022-08-05T05:48:44;22.20;99.90
20242;DHT22;10279;46.388;8.116;2022-08-05T05:51:21;22.10;99.90
20242;DHT22;10279;46.388;8.116;2022-08-05T05:53:49;22.10;99.90
20242;DHT22;10279;46.388;8.116;2022-08-05T05:56:29;22.20;99.90
20242;DHT22;10279;46.388;8.116;2022-08-05T05:59:01;22.10;99.90
20242;DHT22;10279;46.388;8.116;2022-08-05T06:01:38;22.10;99.90
20242;DHT22;10279;46.388;8.116;2022-08-05T06:04:11;22.10;99.90
20242;DHT22;10279;46.388;8.116;2022-08-05T06:06:41;22.20;99.90
20242;DHT22;10279;46.388;8.116;2022-08-05T06:09:15;22.20;99.90
20242;DHT22;10279;46.388;8.116;2022-08-05T06:12:02;22.20;99.90
20242;DHT22;10279;46.388;8.116;2022-08-05T06:14:30;22.20;99.90
20242;DHT22;10279;46.388;8.116;2022-08-05T06:16:59;22.30;99.90
20242;DHT22;10279;46.388;8.116;2022-08-05T06:19:27;22.30;99.90
20242;DHT22;10279;46.388;8.116;2022-08-05T08:30:44;24.00;99.90
20242;DHT22;10279;46.388;8.116;2022-08-05T08:33:15;24.10;99.90
20242;DHT22;10279;46.388;8.116;2022-08-05T08:35:45;24.20;99.90
20242;DHT22;10279;46.388;8.116;2022-08-05T08:38:23;24.30;99.90
20242;DHT22;10279;46.388;8.116;2022-08-05T08:41:09;24.30;99.90
20242;DHT22;10279;46.388;8.116;2022-08-05T08:43:40;24.40;99.90
20242;DHT22;10279;46.388;8.116;2022-08-05T08:46:30;24.40;99.90
20242;DHT22;10279;46.388;8.116;2022-08-05T08:48:58;24.50;99.90
20242;DHT22;10279;46.388;8.116;2022-08-05T08:52:00;24.50;99.90
20242;DHT22;10279;46.388;8.116;2022-08-05T08:54:52;24.60;99.90
20242;DHT22;10279;46.388;8.116;2022-08-05T08:57:19;24.70;99.90
20242;DHT22;10279;46.388;8.116;2022-08-05T08:59:49;24.80;99.90
20242;DHT22;10279;46.388;8.116;2022-08-05T09:02:19;24.90;99.90
20242;DHT22;10279;46.388;8.116;2022-08-05T09:10:24;25.30;99.90
20242;DHT22;10279;46.388;8.116;2022-08-05T09:12:56;25.40;99.90
20242;DHT22;10279;46.388;8.116;2022-08-05T15:07:56;23.80;99.90
20242;DHT22;10279;46.388;8.116;2022-08-05T15:10:39;24.00;99.90
20242;DHT22;10279;46.388;8.116;2022-08-05T15:13:11;24.50;99.90
20242;DHT22;10279;46.388;8.116;2022-08-05T15:15:39;25.10;99.90
20242;DHT22;10279;46.388;8.116;2022-08-05T18:22:58;22.60;99.90
20242;DHT22;10279;46.388;8.116;2022-08-05T18:25:35;22.60;99.90
20242;DHT22;10279;46.388;8.116;2022-08-05T18:28:08;22.20;99.90
20242;DHT22;10279;46.388;8.116;2022-08-05T18:30:35;21.90;99.90
20242;DHT22;10279;46.388;8.116;2022-08-05T18:33:06;21.80;99.90
20242;DHT22;10279;46.388;8.116;2022-08-05T18:35:39;21.70;99.90
20242;DHT22;10279;46.388;8.116;2022-08-05T18:38:27;21.70;99.90
20242;DHT22;10279;46.388;8.116;2022-08-05T18:40:54;21.50;99.90
20242;DHT22;10279;46.388;8.116;2022-08-05T18:43:41;21.40;99.90
20242;DHT22;10279;46.388;8.116;2022-08-05T18:46:15;21.30;99.90
20242;DHT22;10279;46.388;8.116;2022-08-05T18:48:49;21.30;99.90
20242;DHT22;10279;46.388;8.116;2022-08-05T18:51:20;21.20;99.90
20242;DHT22;10279;46.388;8.116;2022-08-05T18:54:26;21.10;99.90
20242;DHT22;10279;46.388;8.116;2022-08-05T18:57:00;20.70;99.90
20242;DHT22;10279;46.388;8.116;2022-08-05T18:59:30;20.50;99.90
20242;DHT22;10279;46.388;8.116;2022-08-05T19:02:18;20.40;99.90
20242;DHT22;10279;46.388;8.116;2022-08-05T19:04:55;20.30;99.90
20242;DHT22;10279;46.388;8.116;2022-08-05T19:07:46;20.40;99.90
20242;DHT22;10279;46.388;8.116;2022-08-05T19:10:17;20.50;99.90
20242;DHT22;10279;46.388;8.116;2022-08-05T19:12:57;20.40;99.90
20242;DHT22;10279;46.388;8.116;2022-08-05T19:15:28;20.50;99.90
20242;DHT22;10279;46.388;8.116;2022-08-05T19:18:15;20.60;99.90
20242;DHT22;10279;46.388;8.116;2022-08-05T19:20:48;20.60;99.90
20242;DHT22;10279;46.388;8.116;2022-08-05T19:23:21;20.70;99.90
20242;DHT22;10279;46.388;8.116;2022-08-05T19:26:08;20.70;99.90
20242;DHT22;10279;46.388;8.116;2022-08-05T19:28:39;20.70;99.90
20242;DHT22;10279;46.388;8.116;2022-08-05T19:31:11;20.70;99.90
20242;DHT22;10279;46.388;8.116;2022-08-05T19:33:40;20.70;99.90
20242;DHT22;10279;46.388;8.116;2022-08-05T19:36:24;20.70;99.90
20242;DHT22;10279;46.388;8.116;2022-08-05T19:38:55;20.50;99.90
20242;DHT22;10279;46.388;8.116;2022-08-05T19:41:30;20.40;99.90
20242;DHT22;10279;46.388;8.116;2022-08-05T19:44:18;20.20;99.90
20242;DHT22;10279;46.388;8.116;2022-08-05T19:46:45;20.00;99.90
20242;DHT22;10279;46.388;8.116;2022-08-05T19:49:12;19.90;99.90
20242;DHT22;10279;46.388;8.116;2022-08-05T19:51:44;19.80;99.90
20242;DHT22;10279;46.388;8.116;2022-08-05T19:54:32;19.60;99.90
20242;DHT22;10279;46.388;8.116;2022-08-05T19:57:01;19.50;99.90
20242;DHT22;10279;46.388;8.116;2022-08-05T19:59:37;19.40;99.90
20242;DHT22;10279;46.388;8.116;2022-08-05T20:02:25;19.40;99.90
20242;DHT22;10279;46.388;8.116;2022-08-05T20:04:54;19.60;99.90
20242;DHT22;10279;46.388;8.116;2022-08-05T20:07:29;19.60;99.90
20242;DHT22;10279;46.388;8.116;2022-08-05T20:10:15;19.40;99.90
20242;DHT22;10279;46.388;8.116;2022-08-05T20:12:43;19.40;99.90
20242;DHT22;10279;46.388;8.116;2022-08-05T20:15:18;19.40;99.90
20242;DHT22;10279;46.388;8.116;2022-08-05T20:18:08;19.40;99.90
20242;DHT22;10279;46.388;8.116;2022-08-05T20:20:56;19.30;99.90
20242;DHT22;10279;46.388;8.116;2022-08-05T20:23:26;19.30;99.90
20242;DHT22;10279;46.388;8.116;2022-08-05T20:26:13;19.30;99.90
20242;DHT22;10279;46.388;8.116;2022-08-05T20:28:51;19.30;99.90
20242;DHT22;10279;46.388;8.116;2022-08-05T20:31:24;19.30;99.90
20242;DHT22;10279;46.388;8.116;2022-08-05T20:34:10;19.40;99.90
20242;DHT22;10279;46.388;8.116;2022-08-05T20:36:38;19.60;99.90
20242;DHT22;10279;46.388;8.116;2022-08-05T20:39:10;19.60;99.90
20242;DHT22;10279;46.388;8.116;2022-08-05T20:41:42;19.70;99.90
20242;DHT22;10279;46.388;8.116;2022-08-05T20:44:13;19.60;99.90
20242;DHT22;10279;46.388;8.116;2022-08-05T20:46:55;19.80;99.90
20242;DHT22;10279;46.388;8.116;2022-08-05T20:49:23;19.70;99.90
20242;DHT22;10279;46.388;8.116;2022-08-05T20:51:52;19.70;99.90
20242;DHT22;10279;46.388;8.116;2022-08-05T20:54:23;19.70;99.90
20242;DHT22;10279;46.388;8.116;2022-08-05T20:57:14;19.70;99.90
20242;DHT22;10279;46.388;8.116;2022-08-05T21:02:51;19.40;99.90
20242;DHT22;10279;46.388;8.116;2022-08-05T21:05:23;19.30;99.90
20242;DHT22;10279;46.388;8.116;2022-08-05T21:07:50;19.20;99.90
20242;DHT22;10279;46.388;8.116;2022-08-05T21:10:19;19.20;99.90
20242;DHT22;10279;46.388;8.116;2022-08-05T21:12:47;19.30;99.90
20242;DHT22;10279;46.388;8.116;2022-08-05T21:15:28;19.40;99.90
20242;DHT22;10279;46.388;8.116;2022-08-05T21:17:59;19.40;99.90
20242;DHT22;10279;46.388;8.116;2022-08-05T21:20:27;19.40;99.90
20242;DHT22;10279;46.388;8.116;2022-08-05T21:22:59;19.50;99.90
20242;DHT22;10279;46.388;8.116;2022-08-05T21:25:28;19.50;99.90
20242;DHT22;10279;46.388;8.116;2022-08-05T21:28:01;19.60;99.90
20242;DHT22;10279;46.388;8.116;2022-08-05T21:30:29;19.70;99.90
20242;DHT22;10279;46.388;8.116;2022-08-05T21:32:58;19.70;99.90
20242;DHT22;10279;46.388;8.116;2022-08-05T21:35:27;19.70;99.90
20242;DHT22;10279;46.388;8.116;2022-08-05T21:38:15;19.70;99.90
20242;DHT22;10279;46.388;8.116;2022-08-05T21:40:42;19.80;99.90
20242;DHT22;10279;46.388;8.116;2022-08-05T21:43:10;19.70;99.90
20242;DHT22;10279;46.388;8.116;2022-08-05T21:45:51;19.80;99.90
20242;DHT22;10279;46.388;8.116;2022-08-05T21:48:27;19.70;99.90
20242;DHT22;10279;46.388;8.116;2022-08-05T21:50:55;19.60;99.90
20242;DHT22;10279;46.388;8.116;2022-08-05T21:55:56;19.20;99.90
20242;DHT22;10279;46.388;8.116;2022-08-05T21:58:43;19.10;99.90
20242;DHT22;10279;46.388;8.116;2022-08-05T22:01:24;19.00;99.90
20242;DHT22;10279;46.388;8.116;2022-08-05T22:03:52;18.80;99.90
20242;DHT22;10279;46.388;8.116;2022-08-05T22:06:20;18.70;99.90
20242;DHT22;10279;46.388;8.116;2022-08-05T22:09:00;18.60;99.90
20242;DHT22;10279;46.388;8.116;2022-08-05T22:11:40;18.50;99.90
20242;DHT22;10279;46.388;8.116;2022-08-05T22:14:08;18.40;99.90
20242;DHT22;10279;46.388;8.116;2022-08-05T22:17:00;18.40;99.90
20242;DHT22;10279;46.388;8.116;2022-08-05T22:19:31;18.30;99.90
20242;DHT22;10279;46.388;8.116;2022-08-05T22:22:18;18.30;99.90
20242;DHT22;10279;46.388;8.116;2022-08-05T22:24:54;18.20;99.90
20242;DHT22;10279;46.388;8.116;2022-08-05T22:27:55;18.20;99.90
20242;DHT22;10279;46.388;8.116;2022-08-05T22:30:39;18.20;99.90
20242;DHT22;10279;46.388;8.116;2022-08-05T22:33:27;18.20;99.90
20242;DHT22;10279;46.388;8.116;2022-08-05T22:36:14;18.30;99.90
20242;DHT22;10279;46.388;8.116;2022-08-05T22:38:43;18.30;99.90
20242;DHT22;10279;46.388;8.116;2022-08-05T22:41:18;18.40;99.90
20242;DHT22;10279;46.388;8.116;2022-08-05T22:44:06;18.30;99.90
20242;DHT22;10279;46.388;8.116;2022-08-05T22:46:34;18.30;99.90
20242;DHT22;10279;46.388;8.116;2022-08-05T22:49:07;18.30;99.90
20242;DHT22;10279;46.388;8.116;2022-08-05T22:51:55;18.10;99.90
20242;DHT22;10279;46.388;8.116;2022-08-05T22:54:34;18.00;99.90
20242;DHT22;10279;46.388;8.116;2022-08-05T22:57:03;18.00;99.90
20242;DHT22;10279;46.388;8.116;2022-08-05T22:59:32;18.00;99.90
20242;DHT22;10279;46.388;8.116;2022-08-05T23:02:16;18.00;99.90
20242;DHT22;10279;46.388;8.116;2022-08-05T23:04:44;18.10;99.90
20242;DHT22;10279;46.388;8.116;2022-08-05T23:07:18;18.20;99.90
20242;DHT22;10279;46.388;8.116;2022-08-05T23:09:48;18.10;99.90
20242;DHT22;10279;46.388;8.116;2022-08-05T23:12:28;18.20;99.90
20242;DHT22;10279;46.388;8.116;2022-08-05T23:15:01;18.40;99.90
20242;DHT22;10279;46.388;8.116;2022-08-05T23:17:35;18.50;99.90
20242;DHT22;10279;46.388;8.116;2022-08-05T23:20:22;18.60;99.90
20242;DHT22;10279;46.388;8.116;2022-08-05T23:22:51;18.70;99.90
20242;DHT22;10279;46.388;8.116;2022-08-05T23:25:22;18.90;99.90
20242;DHT22;10279;46.388;8.116;2022-08-05T23:28:10;19.10;99.90
20242;DHT22;10279;46.388;8.116;2022-08-05T23:33:18;19.50;99.90
20242;DHT22;10279;46.388;8.116;2022-08-05T23:36:06;19.50;99.90
20242;DHT22;10279;46.388;8.116;2022-08-05T23:38:36;19.60;99.90
20242;DHT22;10279;46.388;8.116;2022-08-05T23:41:03;19.60;99.90
20242;DHT22;10279;46.388;8.116;2022-08-05T23:43:31;19.60;99.90
20242;DHT22;10279;46.388;8.116;2022-08-05T23:46:18;19.70;99.90
20242;DHT22;10279;46.388;8.116;2022-08-05T23:48:52;19.70;99.90
